»·PEaware :: FDX515 KLAS-KLAX

FDX515 :: KLAS-KLAX

FLIGHT INFORMATION

Flight Status: Arrived
Operator:
Federal Express
More flights by this operator :: More flights under this callsign
Pilot: Eugene Z. (6)
Aircraft: MCDONNELL-DOUGLAS MD-11
(MD11)
More flights by this aircraft type
Origin: KLAS McCarran Intl
United States
Destination: KLAX Los Angeles Intl
United States
More flights between these airports :: More routes between these airports
Route: +BOACH4 HEC RIIVR2
File this flight plan on PilotEdge
Remarks: / V /
Altitude:
(Current/Filed)
26,000ft
Speed:
(Current/Filed)
300kts
Departed: 22-Jun-11 06:52 PM
Arrived: 22-Jun-11 07:33 PM
Distance/Time
Traveled:
205nm/0:41
Distance/Time
To Go:
Arrived

Flight Plot

Page will automatically refresh every two minutes.


Map Options




Map Legend


Flown Route
Filed Route
Departure Airport
Arrival Airport
Navaid (VOR, NDB)
Fix

Horizontal Profiles

Position Reports

Time Latitude Longitude Heading Altitude Ground
Speed
22-Jun-11 18:36 36.080129 -115.129469 94 2194ft 0kts
22-Jun-11 18:37 36.080129 -115.129469 94 2194ft 0kts
22-Jun-11 18:38 36.080129 -115.129469 94 2194ft 0kts
22-Jun-11 18:39 36.080129 -115.129469 94 2194ft 0kts
22-Jun-11 18:40 36.080129 -115.129469 94 2194ft 0kts
22-Jun-11 18:41 36.080129 -115.129469 94 2194ft 0kts
22-Jun-11 18:42 36.080129 -115.129469 94 2194ft 0kts
22-Jun-11 18:43 36.080137 -115.129582 94 2194ft 2kts
22-Jun-11 18:44 36.080193 -115.130386 94 2194ft 0kts
22-Jun-11 18:45 36.080193 -115.130380 94 2194ft 0kts
22-Jun-11 18:46 36.080130 -115.130147 119 2194ft 7kts
22-Jun-11 18:47 36.077643 -115.129380 91 2194ft 12kts
22-Jun-11 18:48 36.077654 -115.122193 92 2194ft 11kts
22-Jun-11 18:49 36.076916 -115.121321 191 2194ft 9kts
22-Jun-11 18:50 36.076408 -115.122410 269 2194ft 0kts
22-Jun-11 18:51 36.076372 -115.142794 270 2196ft 184kts
22-Jun-11 18:52 36.076739 -115.211507 266 5075ft 196kts
22-Jun-11 18:53 36.027744 -115.276647 199 7105ft 280kts
22-Jun-11 18:54 35.968722 -115.301286 191 9937ft 292kts
22-Jun-11 18:55 35.877763 -115.312769 185 11543ft 372kts
22-Jun-11 18:56 35.770434 -115.305317 175 14978ft 395kts
22-Jun-11 18:57 35.661897 -115.323781 217 17747ft 407kts
22-Jun-11 18:58 35.581032 -115.424994 229 20401ft 423kts
22-Jun-11 18:59 35.500144 -115.533343 229 22856ft 434kts
22-Jun-11 19:00 35.418677 -115.642621 229 25087ft 431kts
22-Jun-11 19:01 35.337853 -115.750441 229 25792ft 426kts
22-Jun-11 19:02 35.257493 -115.857112 228 25808ft 425kts
22-Jun-11 19:03 35.180712 -115.958971 228 25867ft 401kts
22-Jun-11 19:04 35.105989 -116.057663 228 25861ft 419kts
22-Jun-11 19:05 35.026205 -116.162598 228 25860ft 419kts
22-Jun-11 19:06 34.946585 -116.267052 228 25854ft 419kts
22-Jun-11 19:07 34.867153 -116.371036 228 25853ft 420kts
22-Jun-11 19:08 34.785734 -116.473816 221 25845ft 421kts
22-Jun-11 19:09 34.692683 -116.561240 219 25846ft 421kts
22-Jun-11 19:10 34.599656 -116.648614 219 25856ft 421kts
22-Jun-11 19:11 34.507214 -116.735311 219 25677ft 414kts
22-Jun-11 19:12 34.420384 -116.817082 220 24887ft 372kts
22-Jun-11 19:13 34.339800 -116.892361 220 24126ft 364kts
22-Jun-11 19:14 34.259725 -116.966912 219 22571ft 359kts
22-Jun-11 19:15 34.181343 -117.039736 219 20766ft 351kts
22-Jun-11 19:16 34.106956 -117.114389 233 18899ft 346kts
22-Jun-11 19:17 34.059560 -117.217129 241 17086ft 348kts
22-Jun-11 19:18 34.040073 -117.330414 262 15252ft 345kts
22-Jun-11 19:19 34.029664 -117.443954 265 14069ft 342kts
22-Jun-11 19:20 34.034119 -117.560450 271 12299ft 347kts
22-Jun-11 19:21 34.024846 -117.669169 263 10437ft 299kts
22-Jun-11 19:22 34.015353 -117.766978 262 9207ft 290kts
22-Jun-11 19:23 34.005934 -117.863712 262 7993ft 285kts
22-Jun-11 19:24 33.996472 -117.958190 262 6606ft 280kts
22-Jun-11 19:27 33.972803 -118.197669 264 3305ft 192kts
22-Jun-11 19:28 33.966908 -118.256282 264 2326ft 163kts
22-Jun-11 19:29 33.961583 -118.311080 261 1612ft 165kts
22-Jun-11 19:30 33.955802 -118.365971 262 746ft 165kts
22-Jun-11 19:31 33.950593 -118.416645 262 139ft 78kts
22-Jun-11 19:32 33.948686 -118.426488 225 139ft 0kts
22-Jun-11 19:33 33.946737 -118.427617 179 139ft 0kts
22-Jun-11 19:34 33.946754 -118.423684 82 139ft 22kts
22-Jun-11 19:35 33.947499 -118.416778 82 139ft 23kts
22-Jun-11 19:36 33.948241 -118.410374 82 139ft 14kts
22-Jun-11 19:37 33.946041 -118.408656 203 139ft 5kts
22-Jun-11 19:38 33.945812 -118.409506 263 139ft 0kts
22-Jun-11 19:39 33.945812 -118.409506 263 139ft 0kts

Navigation Log

Ident Type
Flight plan parsing failed, navigation log unavailable